createdAt,value
2022-09-16T00:01:19.084Z,15.98
2022-09-16T00:03:47.813Z,11.27
2022-09-16T00:06:22.017Z,15.68
2022-09-16T00:08:50.958Z,14.25
2022-09-16T00:11:19.175Z,12.75
2022-09-16T00:13:47.100Z,17.50
2022-09-16T00:16:26.343Z,15.32
2022-09-16T00:19:00.732Z,11.48
2022-09-16T00:21:29.661Z,13.43
2022-09-16T00:23:57.632Z,17.33
2022-09-16T00:26:25.971Z,22.67
2022-09-16T00:28:53.371Z,14.90
2022-09-16T00:31:21.040Z,17.52
2022-09-16T00:33:48.269Z,13.23
2022-09-16T00:36:19.731Z,14.65
2022-09-16T00:38:57.616Z,18.33
2022-09-16T00:41:33.430Z,21.85
2022-09-16T00:44:04.740Z,13.45
2022-09-16T00:46:40.892Z,14.95
2022-09-16T00:49:29.398Z,13.20
2022-09-16T00:52:03.603Z,12.80
2022-09-16T00:54:34.104Z,17.15
2022-09-16T00:57:02.826Z,12.80
2022-09-16T00:59:39.194Z,13.07
2022-09-16T01:02:16.242Z,11.70
2022-09-16T01:05:04.271Z,10.82
2022-09-16T01:07:46.483Z,13.38
2022-09-16T01:10:18.962Z,13.43
2022-09-16T01:12:59.355Z,12.65
2022-09-16T01:16:10.411Z,13.20
2022-09-16T01:18:49.087Z,12.80
2022-09-16T01:21:43.194Z,13.20
2022-09-16T01:24:34.930Z,10.52
2022-09-16T01:27:26.329Z,17.20
2022-09-16T01:30:32.646Z,10.02
2022-09-16T01:33:42.377Z,9.13
2022-09-16T01:36:59.587Z,13.88
2022-09-16T01:42:28.957Z,11.15
2022-09-16T01:45:30.985Z,18.20
2022-09-16T01:48:17.872Z,17.83
2022-09-16T01:51:06.222Z,13.20
2022-09-16T01:53:48.339Z,18.23
2022-09-16T01:56:37.588Z,10.52
2022-09-16T01:59:25.375Z,12.85
2022-09-16T02:02:11.852Z,11.63
2022-09-16T02:05:04.845Z,9.27
2022-09-16T02:07:39.632Z,16.23
2022-09-16T02:10:24.296Z,10.68
2022-09-16T02:12:57.496Z,9.80
2022-09-16T02:15:31.056Z,9.00
2022-09-16T02:18:11.241Z,13.30
2022-09-16T02:20:45.388Z,15.32
2022-09-16T02:23:24.009Z,10.23
2022-09-16T02:25:52.860Z,11.40
2022-09-16T02:28:31.267Z,14.43
2022-09-16T02:31:04.679Z,10.88
2022-09-16T02:34:21.744Z,13.88
2022-09-16T02:37:00.116Z,10.30
2022-09-16T02:39:35.016Z,12.32
2022-09-16T02:42:03.047Z,12.65
2022-09-16T02:44:31.356Z,13.65
2022-09-16T02:47:12.853Z,13.68
2022-09-16T02:50:20.195Z,10.98
2022-09-16T02:53:58.514Z,9.25
2022-09-16T02:56:37.550Z,8.05
2022-09-16T02:59:08.332Z,10.70
2022-09-16T03:01:44.438Z,11.52
2022-09-16T03:04:16.424Z,9.13
2022-09-16T03:06:44.686Z,8.25
2022-09-16T03:09:24.040Z,9.50
2022-09-16T03:12:17.149Z,11.75
2022-09-16T03:15:12.210Z,10.55
2022-09-16T03:18:16.682Z,9.10
2022-09-16T03:21:50.586Z,9.52
2022-09-16T03:24:45.592Z,10.13
2022-09-16T03:27:30.127Z,12.48
2022-09-16T03:30:08.465Z,10.75
2022-09-16T03:33:00.233Z,11.02
2022-09-16T03:35:39.171Z,10.95
2022-09-16T03:38:08.300Z,9.55
2022-09-16T03:40:37.285Z,10.25
2022-09-16T03:43:13.731Z,10.05
2022-09-16T03:45:42.705Z,11.38
2022-09-16T03:48:13.265Z,8.85
2022-09-16T03:50:41.232Z,10.15
2022-09-16T03:53:08.904Z,7.68
2022-09-16T03:55:36.260Z,11.07
2022-09-16T03:58:03.850Z,9.05
2022-09-16T04:00:31.442Z,9.10
2022-09-16T04:03:00.377Z,8.73
2022-09-16T04:05:27.985Z,14.73
2022-09-16T04:07:55.194Z,9.98
2022-09-16T04:10:22.717Z,10.80
2022-09-16T04:12:50.047Z,12.45
2022-09-16T04:15:17.361Z,15.20
2022-09-16T04:17:44.744Z,10.85
2022-09-16T04:20:11.913Z,9.45
2022-09-16T04:22:39.516Z,14.73
2022-09-16T04:25:10.470Z,11.95
2022-09-16T04:27:38.128Z,12.27
2022-09-16T04:30:06.164Z,12.02
2022-09-16T04:32:33.329Z,10.77
2022-09-16T04:35:00.553Z,10.50
2022-09-16T04:37:31.633Z,10.55
2022-09-16T04:40:03.802Z,10.80
2022-09-16T04:42:31.858Z,8.32
2022-09-16T04:45:00.693Z,10.77
2022-09-16T04:47:28.997Z,11.15
2022-09-16T04:49:56.426Z,11.27
2022-09-16T04:52:23.791Z,8.80
2022-09-16T04:54:51.131Z,10.32
2022-09-16T04:57:18.388Z,12.77
2022-09-16T04:59:45.925Z,11.60
2022-09-16T05:02:13.137Z,11.68
2022-09-16T05:04:40.404Z,11.98
2022-09-16T05:07:08.125Z,12.63
2022-09-16T05:09:37.535Z,9.32
2022-09-16T05:12:05.406Z,12.05
2022-09-16T05:14:32.802Z,10.52
2022-09-16T05:17:00.237Z,8.65
2022-09-16T05:19:27.563Z,9.98
2022-09-16T05:21:54.945Z,9.57
2022-09-16T05:24:22.262Z,11.15
2022-09-16T05:26:49.617Z,8.75
2022-09-16T05:29:17.554Z,9.70
2022-09-16T05:31:47.555Z,10.55
2022-09-16T05:34:23.216Z,13.48
2022-09-16T05:36:53.998Z,11.50
2022-09-16T05:39:24.582Z,9.93
2022-09-16T05:42:00.237Z,11.30
2022-09-16T05:44:28.899Z,10.43
2022-09-16T05:46:57.419Z,18.23
2022-09-16T05:49:25.649Z,12.27
2022-09-16T05:51:53.384Z,10.65
2022-09-16T05:54:26.121Z,14.95
2022-09-16T05:56:54.565Z,10.07
2022-09-16T05:59:23.959Z,13.77
2022-09-16T06:01:52.610Z,12.65
2022-09-16T06:04:20.350Z,15.25
2022-09-16T06:06:47.984Z,15.25
2022-09-16T06:09:22.360Z,16.73
2022-09-16T06:11:56.635Z,15.23
2022-09-16T06:14:25.625Z,20.55
2022-09-16T06:16:52.902Z,13.45
2022-09-16T06:19:20.411Z,15.68
2022-09-16T06:21:48.395Z,16.48
2022-09-16T06:24:17.926Z,13.85
2022-09-16T06:26:47.073Z,14.50
2022-09-16T06:29:16.739Z,20.20
2022-09-16T06:31:44.093Z,17.92
2022-09-16T06:34:18.535Z,19.25
2022-09-16T06:36:47.661Z,19.85
2022-09-16T06:39:17.001Z,18.75
2022-09-16T06:41:44.853Z,23.45
2022-09-16T06:44:12.236Z,25.00
2022-09-16T06:46:39.754Z,15.73
2022-09-16T06:49:07.269Z,21.65
2022-09-16T06:51:36.104Z,20.50
2022-09-16T06:54:07.648Z,25.63
2022-09-16T06:56:39.698Z,21.27
2022-09-16T06:59:08.197Z,23.35
2022-09-16T07:01:36.732Z,20.05
2022-09-16T07:04:11.090Z,23.48
2022-09-16T07:07:07.618Z,24.98
2022-09-16T07:09:26.326Z,20.85
2022-09-16T07:11:53.550Z,22.85
2022-09-16T07:14:21.568Z,22.85
2022-09-16T07:16:49.013Z,17.55
2022-09-16T07:19:16.340Z,23.30
2022-09-16T07:21:43.732Z,18.15
2022-09-16T07:24:14.113Z,27.77
2022-09-16T07:26:43.341Z,23.13
2022-09-16T07:29:17.503Z,20.27
2022-09-16T07:31:44.709Z,18.65
2022-09-16T07:34:13.712Z,27.10
2022-09-16T07:36:48.202Z,24.77
2022-09-16T07:39:19.289Z,20.10
2022-09-16T07:41:48.510Z,21.90
2022-09-16T07:44:19.120Z,22.70
2022-09-16T07:46:48.059Z,19.98
2022-09-16T07:49:17.022Z,19.38
2022-09-16T07:51:45.257Z,19.85
2022-09-16T07:54:17.720Z,18.15
2022-09-16T07:56:45.414Z,20.90
2022-09-16T07:59:19.293Z,19.88
2022-09-16T08:01:49.927Z,23.17
2022-09-16T08:04:19.716Z,21.42
2022-09-16T08:06:47.844Z,22.60
2022-09-16T08:12:05.763Z,22.05
2022-09-16T08:14:33.538Z,21.55
2022-09-16T08:17:01.894Z,18.83
2022-09-16T08:19:29.565Z,21.77
2022-09-16T08:21:56.956Z,22.17
2022-09-16T08:24:24.331Z,20.98
2022-09-16T08:26:51.713Z,20.65
2022-09-16T08:29:18.998Z,22.52
2022-09-16T08:31:46.196Z,20.92
2022-09-16T08:34:13.573Z,17.52
2022-09-16T08:36:41.011Z,23.70
2022-09-16T08:39:10.117Z,22.73
2022-09-16T08:41:52.404Z,18.15
2022-09-16T08:44:42.367Z,21.77
2022-09-16T08:47:42.848Z,17.42
2022-09-16T08:50:36.726Z,16.60
2022-09-16T08:53:25.276Z,19.67
2022-09-16T08:55:53.182Z,17.50
2022-09-16T08:58:27.195Z,14.50
2022-09-16T09:01:06.653Z,20.85
2022-09-16T09:03:45.954Z,17.83
2022-09-16T09:06:55.674Z,18.25
2022-09-16T09:10:24.873Z,19.85
2022-09-16T09:13:37.292Z,18.35
2022-09-16T09:16:10.260Z,24.08
2022-09-16T09:19:02.631Z,22.60
2022-09-16T09:22:06.350Z,20.55
2022-09-16T09:26:00.609Z,17.63
2022-09-16T09:29:14.995Z,15.18
2022-09-16T09:32:22.086Z,16.67
2022-09-16T09:35:50.075Z,19.52
2022-09-16T09:39:01.465Z,13.93
2022-09-16T09:41:56.809Z,17.90
2022-09-16T09:44:50.860Z,23.50
2022-09-16T09:47:47.144Z,17.35
2022-09-16T09:50:42.802Z,19.17
2022-09-16T09:53:33.707Z,18.88
2022-09-16T09:56:29.125Z,16.98
2022-09-16T09:59:39.412Z,25.02
2022-09-16T10:02:21.425Z,20.83
2022-09-16T10:04:49.608Z,22.30
2022-09-16T10:07:23.675Z,20.38
2022-09-16T10:10:04.285Z,17.45
2022-09-16T10:12:36.362Z,21.48
2022-09-16T10:15:06.027Z,20.23
2022-09-16T10:17:33.844Z,21.80
2022-09-16T10:20:19.685Z,19.95
2022-09-16T10:23:04.130Z,20.33
2022-09-16T10:25:33.421Z,24.65
2022-09-16T10:28:06.165Z,19.55
2022-09-16T10:30:48.748Z,17.95
2022-09-16T10:33:45.708Z,22.20
2022-09-16T10:36:22.705Z,19.23
2022-09-16T10:39:02.293Z,22.85
2022-09-16T10:41:46.364Z,19.15
2022-09-16T10:44:29.931Z,18.70
2022-09-16T10:47:16.537Z,17.80
2022-09-16T10:49:58.410Z,18.95
2022-09-16T10:52:30.189Z,22.38
2022-09-16T10:54:57.704Z,20.77
2022-09-16T10:57:34.183Z,20.05
2022-09-16T11:00:21.289Z,21.67
2022-09-16T11:03:41.948Z,21.30
2022-09-16T11:07:09.711Z,18.08
2022-09-16T11:10:11.298Z,17.65
2022-09-16T11:13:11.993Z,13.35
2022-09-16T11:16:51.184Z,15.90
2022-09-16T11:19:26.819Z,11.90
2022-09-16T11:22:41.258Z,16.40
2022-09-16T11:25:51.601Z,21.52
2022-09-16T11:28:59.131Z,11.65
2022-09-16T11:32:10.892Z,15.65
2022-09-16T11:35:14.051Z,15.38
2022-09-16T11:38:08.100Z,13.70
2022-09-16T11:40:58.090Z,10.80
2022-09-16T11:44:12.636Z,15.95
2022-09-16T11:47:27.302Z,16.75
2022-09-16T11:50:50.650Z,17.42
2022-09-16T11:54:04.356Z,11.55
2022-09-16T11:56:53.596Z,16.23
2022-09-16T11:59:47.847Z,15.50
2022-09-16T12:02:26.508Z,11.15
2022-09-16T12:05:49.649Z,12.65
2022-09-16T12:08:37.861Z,12.00
2022-09-16T12:11:27.255Z,14.20
2022-09-16T12:14:25.768Z,14.00
2022-09-16T12:17:09.178Z,15.27
2022-09-16T12:20:16.802Z,14.05
2022-09-16T12:22:54.298Z,15.57
2022-09-16T12:26:09.469Z,14.20
2022-09-16T12:28:55.099Z,10.50
2022-09-16T12:31:45.063Z,7.90
2022-09-16T12:34:22.220Z,11.55
2022-09-16T12:37:24.992Z,8.57
2022-09-16T12:39:53.066Z,8.98
2022-09-16T12:43:14.430Z,8.90
2022-09-16T12:46:09.637Z,7.97
2022-09-16T12:49:38.633Z,13.60
2022-09-16T12:52:23.678Z,14.25
2022-09-16T12:55:38.026Z,8.70
2022-09-16T12:58:39.097Z,9.77
2022-09-16T13:01:33.447Z,10.25
2022-09-16T13:04:17.110Z,11.75
2022-09-16T13:07:02.689Z,10.13
2022-09-16T13:09:38.852Z,7.70
2022-09-16T13:12:38.031Z,10.45
2022-09-16T13:15:08.018Z,10.02
2022-09-16T13:17:39.865Z,9.35
2022-09-16T13:20:21.184Z,7.90
2022-09-16T13:23:25.038Z,8.55
2022-09-16T13:26:02.397Z,6.18
2022-09-16T13:28:32.628Z,8.43
2022-09-16T13:31:12.328Z,7.60
2022-09-16T13:33:57.817Z,6.88
2022-09-16T13:36:25.378Z,15.43
2022-09-16T13:39:06.917Z,11.52
2022-09-16T13:41:47.583Z,9.30
2022-09-16T13:44:39.732Z,9.38
2022-09-16T13:47:10.064Z,9.50
2022-09-16T13:49:59.597Z,5.10
2022-09-16T13:52:35.386Z,8.30
2022-09-16T13:55:17.955Z,10.77
2022-09-16T13:58:17.119Z,6.72
2022-09-16T14:01:07.752Z,7.20
2022-09-16T14:04:31.665Z,8.10
2022-09-16T14:07:40.101Z,7.32
2022-09-16T14:10:51.355Z,11.80
2022-09-16T14:13:24.248Z,7.95
2022-09-16T14:15:59.131Z,9.18
2022-09-16T14:18:33.172Z,8.43
2022-09-16T14:21:01.894Z,7.93
2022-09-16T14:23:32.508Z,9.88
2022-09-16T14:26:21.594Z,7.78
2022-09-16T14:28:49.813Z,7.80
2022-09-16T14:31:26.289Z,6.10
2022-09-16T14:34:07.556Z,5.90
2022-09-16T14:36:40.590Z,6.72
2022-09-16T14:39:07.867Z,7.88
2022-09-16T14:41:49.223Z,4.45
2022-09-16T14:44:19.404Z,7.22
2022-09-16T14:47:09.476Z,11.18
2022-09-16T14:49:38.662Z,5.50
2022-09-16T14:52:27.158Z,5.40
2022-09-16T14:54:58.152Z,5.68
2022-09-16T14:57:30.053Z,6.88
2022-09-16T15:00:10.386Z,6.40
2022-09-16T15:03:12.532Z,5.72
2022-09-16T15:05:45.600Z,7.18
2022-09-16T15:08:47.656Z,9.07
2022-09-16T15:14:14.879Z,5.85
2022-09-16T15:16:50.679Z,7.38
2022-09-16T15:19:29.411Z,7.18
2022-09-16T15:22:00.037Z,7.68
2022-09-16T15:24:33.248Z,8.82
2022-09-16T15:27:02.519Z,11.15
2022-09-16T15:29:35.379Z,5.35
2022-09-16T15:32:23.272Z,6.78
2022-09-16T15:35:25.222Z,8.38
2022-09-16T15:37:55.754Z,5.85
2022-09-16T15:40:25.983Z,6.00
2022-09-16T15:43:45.446Z,5.93
2022-09-16T15:46:21.953Z,7.43
2022-09-16T15:49:00.494Z,9.15
2022-09-16T15:51:47.899Z,5.03
2022-09-16T15:54:31.158Z,3.83
2022-09-16T15:57:04.053Z,7.28
2022-09-16T15:59:47.212Z,11.90
2022-09-16T16:02:41.316Z,6.88
2022-09-16T16:05:14.170Z,5.68
2022-09-16T16:07:46.859Z,5.82
2022-09-16T16:10:40.235Z,5.72
2022-09-16T16:13:07.605Z,7.45
2022-09-16T16:15:38.868Z,8.20
2022-09-16T16:18:09.466Z,4.95
2022-09-16T16:20:38.114Z,6.53
2022-09-16T16:23:05.407Z,5.53
2022-09-16T16:25:32.723Z,7.53
2022-09-16T16:27:59.963Z,10.45
2022-09-16T16:30:27.391Z,6.18
2022-09-16T16:32:54.660Z,8.25
2022-09-16T16:35:21.912Z,7.23
2022-09-16T16:37:49.329Z,6.65
2022-09-16T16:40:16.881Z,7.95
2022-09-16T16:42:44.780Z,8.93
2022-09-16T16:45:15.141Z,10.55
2022-09-16T16:47:44.039Z,9.18
2022-09-16T16:50:11.729Z,6.95
2022-09-16T16:52:39.221Z,8.93
2022-09-16T16:55:07.355Z,7.10
2022-09-16T16:57:34.625Z,7.13
2022-09-16T17:00:03.012Z,6.65
2022-09-16T17:02:30.306Z,5.80
2022-09-16T17:04:58.259Z,9.02
2022-09-16T17:07:27.366Z,7.07
2022-09-16T17:09:59.415Z,6.85
2022-09-16T17:12:27.441Z,11.00
2022-09-16T17:14:54.923Z,7.22
2022-09-16T17:17:25.244Z,8.32
2022-09-16T17:19:54.935Z,8.13
2022-09-16T17:22:22.341Z,5.40
2022-09-16T17:24:49.955Z,7.40
2022-09-16T17:27:20.574Z,8.50
2022-09-16T17:29:48.153Z,5.57
2022-09-16T17:32:16.121Z,12.23
2022-09-16T17:34:43.507Z,9.18
2022-09-16T17:37:10.736Z,5.72
2022-09-16T17:39:38.273Z,7.18
2022-09-16T17:42:08.640Z,5.75
2022-09-16T17:44:35.904Z,7.65
2022-09-16T17:47:06.722Z,7.75
2022-09-16T17:49:34.026Z,8.88
2022-09-16T17:52:01.615Z,12.20
2022-09-16T17:54:29.350Z,9.52
2022-09-16T17:56:56.605Z,10.10
2022-09-16T17:59:25.167Z,9.20
2022-09-16T18:01:52.706Z,6.55
2022-09-16T18:04:20.021Z,6.15
2022-09-16T18:06:47.771Z,7.60
2022-09-16T18:09:16.530Z,9.98
2022-09-16T18:11:44.872Z,9.00
2022-09-16T18:14:13.947Z,8.65
2022-09-16T18:16:42.489Z,9.05
2022-09-16T18:19:13.847Z,7.43
2022-09-16T18:21:42.095Z,7.82
2022-09-16T18:24:13.099Z,8.15
2022-09-16T18:26:42.221Z,9.25
2022-09-16T18:29:13.022Z,9.70
2022-09-16T18:31:48.070Z,8.43
2022-09-16T18:34:17.732Z,10.10
2022-09-16T18:36:45.351Z,6.78
2022-09-16T18:39:17.370Z,8.45
2022-09-16T18:41:46.349Z,9.30
2022-09-16T18:44:19.923Z,10.40
2022-09-16T18:46:48.108Z,8.85
2022-09-16T18:49:17.939Z,5.53
2022-09-16T18:51:52.331Z,8.15
2022-09-16T18:54:30.379Z,8.48
2022-09-16T18:57:03.040Z,6.68
2022-09-16T18:59:34.121Z,9.90
2022-09-16T19:02:04.215Z,6.00
2022-09-16T19:04:38.062Z,5.47
2022-09-16T19:07:08.079Z,6.80
2022-09-16T19:09:41.514Z,10.73
2022-09-16T19:12:13.235Z,6.03
2022-09-16T19:14:41.235Z,6.10
2022-09-16T19:17:09.582Z,6.95
2022-09-16T19:19:36.889Z,7.80
2022-09-16T19:22:06.035Z,8.48
2022-09-16T19:24:34.408Z,10.77
2022-09-16T19:27:01.850Z,5.28
2022-09-16T19:29:29.287Z,7.65
2022-09-16T19:31:57.284Z,6.60
2022-09-16T19:34:24.535Z,5.45
2022-09-16T19:36:51.872Z,3.95
2022-09-16T19:39:21.096Z,6.90
2022-09-16T19:41:48.598Z,5.05
2022-09-16T19:44:17.847Z,4.78
2022-09-16T19:46:48.893Z,8.57
2022-09-16T19:49:22.688Z,7.20
2022-09-16T19:51:52.792Z,4.65
2022-09-16T19:54:21.038Z,6.05
2022-09-16T19:56:50.634Z,4.13
2022-09-16T19:59:19.839Z,7.25
2022-09-16T20:01:48.354Z,5.35
2022-09-16T20:04:19.541Z,5.10
2022-09-16T20:06:47.966Z,4.97
2022-09-16T20:09:16.846Z,3.90
2022-09-16T20:11:47.260Z,7.03
2022-09-16T20:14:20.268Z,4.90
2022-09-16T20:16:50.345Z,5.30
2022-09-16T20:19:20.193Z,3.83
2022-09-16T20:21:48.258Z,5.10
2022-09-16T20:24:20.736Z,5.72
2022-09-16T20:26:51.528Z,4.75
2022-09-16T20:29:20.653Z,3.47
2022-09-16T20:31:52.430Z,4.60
2022-09-16T20:34:22.912Z,4.95
2022-09-16T20:36:50.810Z,4.82
2022-09-16T20:39:18.289Z,3.28
2022-09-16T20:41:49.645Z,5.60
2022-09-16T20:44:17.173Z,5.95
2022-09-16T20:46:44.715Z,6.38
2022-09-16T20:49:17.247Z,4.80
2022-09-16T20:51:45.952Z,7.38
2022-09-16T20:54:15.606Z,4.80
2022-09-16T20:56:46.879Z,4.38
2022-09-16T20:59:18.071Z,3.50
2022-09-16T21:01:46.852Z,6.97
2022-09-16T21:04:18.774Z,4.13
2022-09-16T21:06:46.772Z,4.82
2022-09-16T21:09:16.109Z,4.60
2022-09-16T21:11:46.464Z,4.15
2022-09-16T21:14:16.735Z,4.60
2022-09-16T21:16:47.045Z,6.10
2022-09-16T21:19:16.114Z,4.25
2022-09-16T21:21:46.474Z,5.65
2022-09-16T21:24:14.173Z,6.33
2022-09-16T21:26:44.023Z,3.75
2022-09-16T21:29:17.678Z,3.38
2022-09-16T21:31:45.135Z,3.83
2022-09-16T21:34:21.375Z,3.55
2022-09-16T21:36:51.044Z,4.82
2022-09-16T21:39:21.766Z,3.35
2022-09-16T21:41:49.735Z,4.28
2022-09-16T21:44:17.984Z,4.30
2022-09-16T21:46:46.631Z,5.95
2022-09-16T21:49:24.329Z,3.47
2022-09-16T21:51:55.587Z,5.30
2022-09-16T21:54:24.568Z,2.78
2022-09-16T21:56:53.331Z,4.95
2022-09-16T21:59:21.571Z,4.82
2022-09-16T22:01:51.100Z,3.55
2022-09-16T22:04:23.262Z,4.47
2022-09-16T22:06:54.706Z,6.70
2022-09-16T22:09:22.892Z,4.32
2022-09-16T22:11:51.504Z,4.15
2022-09-16T22:14:19.662Z,4.68
2022-09-16T22:16:47.080Z,3.80
2022-09-16T22:19:18.559Z,7.50
2022-09-16T22:21:50.695Z,3.47
2022-09-16T22:24:20.646Z,3.67
2022-09-16T22:26:51.986Z,4.57
2022-09-16T22:29:19.588Z,8.23
2022-09-16T22:31:47.001Z,3.88
2022-09-16T22:34:14.715Z,4.18
2022-09-16T22:36:42.078Z,5.45
2022-09-16T22:39:16.108Z,3.80
2022-09-16T22:41:44.075Z,3.55
2022-09-16T22:44:12.641Z,4.75
2022-09-16T22:46:47.419Z,4.63
2022-09-16T22:49:15.696Z,3.65
2022-09-16T22:51:43.215Z,6.20
2022-09-16T22:54:13.300Z,2.63
2022-09-16T22:56:41.285Z,4.75
2022-09-16T22:59:18.994Z,5.03
2022-09-16T23:01:47.476Z,3.45
2022-09-16T23:04:15.119Z,5.00
2022-09-16T23:06:42.597Z,4.05
2022-09-16T23:09:12.950Z,4.53
2022-09-16T23:11:40.361Z,2.95
2022-09-16T23:14:10.692Z,4.07
2022-09-16T23:16:38.486Z,3.40
2022-09-16T23:19:10.413Z,9.90
2022-09-16T23:21:39.626Z,4.80
2022-09-16T23:24:13.774Z,3.10
2022-09-16T23:26:42.118Z,4.65
2022-09-16T23:29:12.796Z,4.28
2022-09-16T23:31:44.061Z,6.18
2022-09-16T23:34:21.788Z,4.35
2022-09-16T23:36:52.102Z,3.63
2022-09-16T23:39:19.788Z,4.68
2022-09-16T23:41:48.706Z,4.40
2022-09-16T23:44:16.649Z,9.93
2022-09-16T23:46:44.851Z,4.32
2022-09-16T23:49:13.033Z,4.93
2022-09-16T23:51:40.253Z,5.13
2022-09-16T23:54:07.708Z,5.55
2022-09-16T23:56:35.022Z,4.10
2022-09-16T23:59:02.426Z,4.20
